sensor_id;sensor_type;location;lat;lon;timestamp;temperature;humidity
40289;DHT22;28991;52.028;5.526;2022-11-06T00:00:25;19.50;53.00
40289;DHT22;28991;52.028;5.526;2022-11-06T00:02:51;19.50;53.00
40289;DHT22;28991;52.028;5.526;2022-11-06T00:05:16;19.50;53.10
40289;DHT22;28991;52.028;5.526;2022-11-06T00:08:01;19.40;53.00
40289;DHT22;28991;52.028;5.526;2022-11-06T00:10:28;19.50;53.10
40289;DHT22;28991;52.028;5.526;2022-11-06T00:12:53;20.30;53.50
40289;DHT22;28991;52.028;5.526;2022-11-06T00:15:19;19.70;53.20
40289;DHT22;28991;52.028;5.526;2022-11-06T00:17:47;19.50;53.10
40289;DHT22;28991;52.028;5.526;2022-11-06T00:20:12;19.50;53.10
40289;DHT22;28991;52.028;5.526;2022-11-06T00:22:37;19.40;53.10
40289;DHT22;28991;52.028;5.526;2022-11-06T00:25:03;19.40;53.10
40289;DHT22;28991;52.028;5.526;2022-11-06T00:27:29;19.40;53.10
40289;DHT22;28991;52.028;5.526;2022-11-06T00:29:55;19.50;53.20
40289;DHT22;28991;52.028;5.526;2022-11-06T00:32:20;19.40;53.10
40289;DHT22;28991;52.028;5.526;2022-11-06T00:34:46;19.40;53.10
40289;DHT22;28991;52.028;5.526;2022-11-06T00:37:12;19.40;53.10
40289;DHT22;28991;52.028;5.526;2022-11-06T00:39:37;19.40;53.10
40289;DHT22;28991;52.028;5.526;2022-11-06T00:42:03;19.40;53.20
40289;DHT22;28991;52.028;5.526;2022-11-06T00:44:28;19.40;53.20
40289;DHT22;28991;52.028;5.526;2022-11-06T00:46:54;19.40;53.20
40289;DHT22;28991;52.028;5.526;2022-11-06T00:49:19;19.40;53.20
40289;DHT22;28991;52.028;5.526;2022-11-06T00:51:45;19.80;53.40
40289;DHT22;28991;52.028;5.526;2022-11-06T00:54:11;19.40;53.20
40289;DHT22;28991;52.028;5.526;2022-11-06T00:56:37;19.40;53.20
40289;DHT22;28991;52.028;5.526;2022-11-06T00:59:03;19.40;53.20
40289;DHT22;28991;52.028;5.526;2022-11-06T01:01:30;19.40;53.20
40289;DHT22;28991;52.028;5.526;2022-11-06T01:03:58;19.40;53.20
40289;DHT22;28991;52.028;5.526;2022-11-06T01:06:25;19.80;53.50
40289;DHT22;28991;52.028;5.526;2022-11-06T01:08:51;19.40;53.20
40289;DHT22;28991;52.028;5.526;2022-11-06T01:11:18;19.40;53.30
40289;DHT22;28991;52.028;5.526;2022-11-06T01:13:44;19.70;53.50
40289;DHT22;28991;52.028;5.526;2022-11-06T01:16:11;19.50;53.30
40289;DHT22;28991;52.028;5.526;2022-11-06T01:18:37;19.40;53.30
40289;DHT22;28991;52.028;5.526;2022-11-06T01:21:04;19.40;53.30
40289;DHT22;28991;52.028;5.526;2022-11-06T01:23:29;19.40;53.30
40289;DHT22;28991;52.028;5.526;2022-11-06T01:25:59;19.40;53.30
40289;DHT22;28991;52.028;5.526;2022-11-06T01:28:25;19.40;53.30
40289;DHT22;28991;52.028;5.526;2022-11-06T01:30:50;19.40;53.30
40289;DHT22;28991;52.028;5.526;2022-11-06T01:33:16;19.40;53.30
40289;DHT22;28991;52.028;5.526;2022-11-06T01:35:45;19.40;53.30
40289;DHT22;28991;52.028;5.526;2022-11-06T01:38:11;19.40;53.30
40289;DHT22;28991;52.028;5.526;2022-11-06T01:40:46;19.40;53.30
40289;DHT22;28991;52.028;5.526;2022-11-06T01:43:17;19.40;53.30
40289;DHT22;28991;52.028;5.526;2022-11-06T01:45:44;19.40;53.30
40289;DHT22;28991;52.028;5.526;2022-11-06T01:48:10;19.40;53.30
40289;DHT22;28991;52.028;5.526;2022-11-06T01:50:37;19.40;53.40
40289;DHT22;28991;52.028;5.526;2022-11-06T01:53:03;19.40;53.40
40289;DHT22;28991;52.028;5.526;2022-11-06T01:55:29;19.30;53.30
40289;DHT22;28991;52.028;5.526;2022-11-06T01:57:56;19.40;53.40
40289;DHT22;28991;52.028;5.526;2022-11-06T02:00:24;19.40;53.40
40289;DHT22;28991;52.028;5.526;2022-11-06T02:02:51;19.40;53.40
40289;DHT22;28991;52.028;5.526;2022-11-06T02:05:16;19.40;53.40
40289;DHT22;28991;52.028;5.526;2022-11-06T02:07:42;19.40;53.40
40289;DHT22;28991;52.028;5.526;2022-11-06T02:10:08;19.30;53.30
40289;DHT22;28991;52.028;5.526;2022-11-06T02:15:11;19.40;53.40
40289;DHT22;28991;52.028;5.526;2022-11-06T02:23:19;19.40;53.40
40289;DHT22;28991;52.028;5.526;2022-11-06T02:28:32;19.40;53.40
40289;DHT22;28991;52.028;5.526;2022-11-06T02:30:59;19.30;53.40
40289;DHT22;28991;52.028;5.526;2022-11-06T02:33:32;19.40;53.40
40289;DHT22;28991;52.028;5.526;2022-11-06T02:36:00;19.50;53.50
40289;DHT22;28991;52.028;5.526;2022-11-06T02:38:37;19.30;53.40
40289;DHT22;28991;52.028;5.526;2022-11-06T02:41:04;19.40;53.40
40289;DHT22;28991;52.028;5.526;2022-11-06T02:43:31;19.30;53.40
40289;DHT22;28991;52.028;5.526;2022-11-06T02:46:02;19.80;53.70
40289;DHT22;28991;52.028;5.526;2022-11-06T02:48:32;19.40;53.50
40289;DHT22;28991;52.028;5.526;2022-11-06T02:51:01;19.50;53.50
40289;DHT22;28991;52.028;5.526;2022-11-06T02:53:28;19.30;53.40
40289;DHT22;28991;52.028;5.526;2022-11-06T02:55:55;19.40;53.50
40289;DHT22;28991;52.028;5.526;2022-11-06T02:58:34;19.30;53.50
40289;DHT22;28991;52.028;5.526;2022-11-06T03:01:10;19.40;53.50
40289;DHT22;28991;52.028;5.526;2022-11-06T03:03:38;19.30;53.40
40289;DHT22;28991;52.028;5.526;2022-11-06T03:06:12;19.30;53.50
40289;DHT22;28991;52.028;5.526;2022-11-06T03:08:43;19.30;53.50
40289;DHT22;28991;52.028;5.526;2022-11-06T03:11:13;19.30;53.50
40289;DHT22;28991;52.028;5.526;2022-11-06T03:13:48;19.70;53.70
40289;DHT22;28991;52.028;5.526;2022-11-06T03:16:25;19.30;53.50
40289;DHT22;28991;52.028;5.526;2022-11-06T03:18:58;19.30;53.50
40289;DHT22;28991;52.028;5.526;2022-11-06T03:21:28;19.30;53.50
40289;DHT22;28991;52.028;5.526;2022-11-06T03:23:57;19.30;53.50
40289;DHT22;28991;52.028;5.526;2022-11-06T03:26:26;19.30;53.50
40289;DHT22;28991;52.028;5.526;2022-11-06T03:28:56;19.30;53.50
40289;DHT22;28991;52.028;5.526;2022-11-06T03:31:28;19.30;53.50
40289;DHT22;28991;52.028;5.526;2022-11-06T03:33:54;19.30;53.40
40289;DHT22;28991;52.028;5.526;2022-11-06T03:36:24;19.40;53.60
40289;DHT22;28991;52.028;5.526;2022-11-06T03:38:51;19.90;53.80
40289;DHT22;28991;52.028;5.526;2022-11-06T03:41:21;19.30;53.50
40289;DHT22;28991;52.028;5.526;2022-11-06T03:43:48;19.40;53.60
40289;DHT22;28991;52.028;5.526;2022-11-06T03:46:15;19.30;53.50
40289;DHT22;28991;52.028;5.526;2022-11-06T03:48:53;19.30;53.50
40289;DHT22;28991;52.028;5.526;2022-11-06T03:51:24;19.40;53.60
40289;DHT22;28991;52.028;5.526;2022-11-06T03:53:55;19.30;53.50
40289;DHT22;28991;52.028;5.526;2022-11-06T03:56:24;19.30;53.50
40289;DHT22;28991;52.028;5.526;2022-11-06T03:58:52;19.30;53.60
40289;DHT22;28991;52.028;5.526;2022-11-06T04:01:21;19.30;53.60
40289;DHT22;28991;52.028;5.526;2022-11-06T04:03:58;19.30;53.60
40289;DHT22;28991;52.028;5.526;2022-11-06T04:06:28;19.40;53.60
40289;DHT22;28991;52.028;5.526;2022-11-06T04:08:55;19.80;53.80
40289;DHT22;28991;52.028;5.526;2022-11-06T04:11:40;19.30;53.60
40289;DHT22;28991;52.028;5.526;2022-11-06T04:14:25;19.30;53.60
40289;DHT22;28991;52.028;5.526;2022-11-06T04:16:56;19.30;53.60
40289;DHT22;28991;52.028;5.526;2022-11-06T04:19:22;19.30;53.60
40289;DHT22;28991;52.028;5.526;2022-11-06T04:21:53;19.30;53.60
40289;DHT22;28991;52.028;5.526;2022-11-06T04:30:08;19.30;53.60
40289;DHT22;28991;52.028;5.526;2022-11-06T04:32:38;19.30;53.60
40289;DHT22;28991;52.028;5.526;2022-11-06T04:40:10;19.30;53.60
40289;DHT22;28991;52.028;5.526;2022-11-06T04:42:39;19.30;53.60
40289;DHT22;28991;52.028;5.526;2022-11-06T04:45:10;19.30;53.70
40289;DHT22;28991;52.028;5.526;2022-11-06T04:47:37;19.30;53.70
40289;DHT22;28991;52.028;5.526;2022-11-06T04:50:03;19.20;53.60
40289;DHT22;28991;52.028;5.526;2022-11-06T04:52:30;19.20;53.60
40289;DHT22;28991;52.028;5.526;2022-11-06T04:54:56;19.20;53.60
40289;DHT22;28991;52.028;5.526;2022-11-06T04:57:22;19.30;53.70
40289;DHT22;28991;52.028;5.526;2022-11-06T04:59:48;19.30;53.70
40289;DHT22;28991;52.028;5.526;2022-11-06T05:02:14;19.80;54.00
40289;DHT22;28991;52.028;5.526;2022-11-06T05:04:39;19.40;53.80
40289;DHT22;28991;52.028;5.526;2022-11-06T05:07:05;19.30;53.70
40289;DHT22;28991;52.028;5.526;2022-11-06T05:09:30;19.30;53.70
40289;DHT22;28991;52.028;5.526;2022-11-06T05:11:56;19.20;54.30
40289;DHT22;28991;52.028;5.526;2022-11-06T05:14:21;19.90;54.10
40289;DHT22;28991;52.028;5.526;2022-11-06T05:16:47;19.30;53.70
40289;DHT22;28991;52.028;5.526;2022-11-06T05:19:12;19.30;54.30
40289;DHT22;28991;52.028;5.526;2022-11-06T05:21:37;19.30;53.70
40289;DHT22;28991;52.028;5.526;2022-11-06T05:24:22;19.20;53.70
40289;DHT22;28991;52.028;5.526;2022-11-06T05:26:47;19.20;53.70
40289;DHT22;28991;52.028;5.526;2022-11-06T05:29:13;19.20;53.70
40289;DHT22;28991;52.028;5.526;2022-11-06T05:31:38;19.20;53.70
40289;DHT22;28991;52.028;5.526;2022-11-06T05:34:04;19.20;53.70
40289;DHT22;28991;52.028;5.526;2022-11-06T05:36:29;19.20;53.70
40289;DHT22;28991;52.028;5.526;2022-11-06T05:38:55;19.20;53.60
40289;DHT22;28991;52.028;5.526;2022-11-06T05:41:20;19.30;53.50
40289;DHT22;28991;52.028;5.526;2022-11-06T05:43:46;19.30;53.40
40289;DHT22;28991;52.028;5.526;2022-11-06T05:46:11;19.30;53.30
40289;DHT22;28991;52.028;5.526;2022-11-06T05:48:36;19.30;53.10
40289;DHT22;28991;52.028;5.526;2022-11-06T05:51:03;19.30;52.90
40289;DHT22;28991;52.028;5.526;2022-11-06T05:53:32;19.30;52.70
40289;DHT22;28991;52.028;5.526;2022-11-06T05:55:58;19.30;52.60
40289;DHT22;28991;52.028;5.526;2022-11-06T05:58:23;19.30;52.00
40289;DHT22;28991;52.028;5.526;2022-11-06T06:00:49;19.30;51.80
40289;DHT22;28991;52.028;5.526;2022-11-06T06:03:15;19.40;51.70
40289;DHT22;28991;52.028;5.526;2022-11-06T06:05:40;19.40;51.60
40289;DHT22;28991;52.028;5.526;2022-11-06T06:08:06;19.40;51.30
40289;DHT22;28991;52.028;5.526;2022-11-06T06:10:31;19.40;51.30
40289;DHT22;28991;52.028;5.526;2022-11-06T06:12:57;19.40;51.10
40289;DHT22;28991;52.028;5.526;2022-11-06T06:15:22;19.40;50.90
40289;DHT22;28991;52.028;5.526;2022-11-06T06:17:48;19.50;50.80
40289;DHT22;28991;52.028;5.526;2022-11-06T06:20:13;19.50;51.00
40289;DHT22;28991;52.028;5.526;2022-11-06T06:22:39;19.50;50.90
40289;DHT22;28991;52.028;5.526;2022-11-06T06:25:05;19.50;50.70
40289;DHT22;28991;52.028;5.526;2022-11-06T06:27:30;19.60;51.00
40289;DHT22;28991;52.028;5.526;2022-11-06T06:29:56;19.50;50.90
40289;DHT22;28991;52.028;5.526;2022-11-06T06:32:21;19.50;50.80
40289;DHT22;28991;52.028;5.526;2022-11-06T06:34:47;19.50;50.90
40289;DHT22;28991;52.028;5.526;2022-11-06T06:37:12;19.60;50.90
40289;DHT22;28991;52.028;5.526;2022-11-06T06:39:37;19.60;50.90
40289;DHT22;28991;52.028;5.526;2022-11-06T06:42:03;19.60;50.90
40289;DHT22;28991;52.028;5.526;2022-11-06T06:44:28;19.60;50.80
40289;DHT22;28991;52.028;5.526;2022-11-06T06:46:54;19.60;50.70
40289;DHT22;28991;52.028;5.526;2022-11-06T06:49:19;19.50;50.60
40289;DHT22;28991;52.028;5.526;2022-11-06T06:51:48;19.50;50.50
40289;DHT22;28991;52.028;5.526;2022-11-06T06:54:14;19.60;50.70
40289;DHT22;28991;52.028;5.526;2022-11-06T06:56:39;19.50;50.60
40289;DHT22;28991;52.028;5.526;2022-11-06T06:59:05;19.50;50.60
40289;DHT22;28991;52.028;5.526;2022-11-06T07:01:31;19.70;50.70
40289;DHT22;28991;52.028;5.526;2022-11-06T07:03:57;19.50;50.50
40289;DHT22;28991;52.028;5.526;2022-11-06T07:06:22;19.50;50.50
40289;DHT22;28991;52.028;5.526;2022-11-06T07:08:49;19.50;50.50
40289;DHT22;28991;52.028;5.526;2022-11-06T07:11:14;19.60;50.50
40289;DHT22;28991;52.028;5.526;2022-11-06T07:13:41;19.50;50.60
40289;DHT22;28991;52.028;5.526;2022-11-06T07:16:08;19.50;50.50
40289;DHT22;28991;52.028;5.526;2022-11-06T07:18:34;19.60;50.60
40289;DHT22;28991;52.028;5.526;2022-11-06T07:20:59;19.50;50.50
40289;DHT22;28991;52.028;5.526;2022-11-06T07:23:25;19.50;50.50
40289;DHT22;28991;52.028;5.526;2022-11-06T07:25:51;19.50;50.60
40289;DHT22;28991;52.028;5.526;2022-11-06T07:28:17;19.50;50.60
40289;DHT22;28991;52.028;5.526;2022-11-06T07:30:43;19.50;50.50
40289;DHT22;28991;52.028;5.526;2022-11-06T07:33:08;19.90;50.80
40289;DHT22;28991;52.028;5.526;2022-11-06T07:35:34;19.60;50.60
40289;DHT22;28991;52.028;5.526;2022-11-06T07:38:02;19.50;50.50
40289;DHT22;28991;52.028;5.526;2022-11-06T07:40:27;19.50;50.60
40289;DHT22;28991;52.028;5.526;2022-11-06T07:42:53;19.50;50.50
40289;DHT22;28991;52.028;5.526;2022-11-06T07:45:18;19.50;50.50
40289;DHT22;28991;52.028;5.526;2022-11-06T07:47:44;19.50;50.50
40289;DHT22;28991;52.028;5.526;2022-11-06T07:50:09;19.50;50.50
40289;DHT22;28991;52.028;5.526;2022-11-06T07:52:34;19.60;50.60
40289;DHT22;28991;52.028;5.526;2022-11-06T07:55:00;19.80;50.80
40289;DHT22;28991;52.028;5.526;2022-11-06T07:57:25;19.50;50.60
40289;DHT22;28991;52.028;5.526;2022-11-06T07:59:51;19.60;50.60
40289;DHT22;28991;52.028;5.526;2022-11-06T08:02:17;19.70;50.60
40289;DHT22;28991;52.028;5.526;2022-11-06T08:04:42;19.50;50.50
40289;DHT22;28991;52.028;5.526;2022-11-06T08:07:08;19.50;50.50
40289;DHT22;28991;52.028;5.526;2022-11-06T08:09:33;19.50;50.50
40289;DHT22;28991;52.028;5.526;2022-11-06T08:11:59;19.50;50.50
40289;DHT22;28991;52.028;5.526;2022-11-06T08:14:24;19.50;50.50
40289;DHT22;28991;52.028;5.526;2022-11-06T08:16:50;19.60;50.60
40289;DHT22;28991;52.028;5.526;2022-11-06T08:19:15;20.10;50.70
40289;DHT22;28991;52.028;5.526;2022-11-06T08:21:41;19.60;50.50
40289;DHT22;28991;52.028;5.526;2022-11-06T08:24:06;19.50;50.30
40289;DHT22;28991;52.028;5.526;2022-11-06T08:26:32;19.70;50.30
40289;DHT22;28991;52.028;5.526;2022-11-06T08:28:58;19.70;50.20
40289;DHT22;28991;52.028;5.526;2022-11-06T08:31:23;19.70;50.20
40289;DHT22;28991;52.028;5.526;2022-11-06T08:33:49;19.70;50.10
40289;DHT22;28991;52.028;5.526;2022-11-06T08:36:15;19.80;50.10
40289;DHT22;28991;52.028;5.526;2022-11-06T08:38:41;19.80;50.20
40289;DHT22;28991;52.028;5.526;2022-11-06T08:41:07;19.80;50.00
40289;DHT22;28991;52.028;5.526;2022-11-06T08:43:33;19.90;50.20
40289;DHT22;28991;52.028;5.526;2022-11-06T08:45:58;20.20;50.30
40289;DHT22;28991;52.028;5.526;2022-11-06T08:48:23;19.80;50.10
40289;DHT22;28991;52.028;5.526;2022-11-06T08:50:49;20.20;50.40
40289;DHT22;28991;52.028;5.526;2022-11-06T08:53:14;19.80;50.20
40289;DHT22;28991;52.028;5.526;2022-11-06T08:55:40;19.80;50.10
40289;DHT22;28991;52.028;5.526;2022-11-06T08:58:05;19.80;50.20
40289;DHT22;28991;52.028;5.526;2022-11-06T09:00:31;19.70;50.20
40289;DHT22;28991;52.028;5.526;2022-11-06T09:02:57;19.80;50.30
40289;DHT22;28991;52.028;5.526;2022-11-06T09:05:23;19.90;50.30
40289;DHT22;28991;52.028;5.526;2022-11-06T09:07:49;19.90;50.30
40289;DHT22;28991;52.028;5.526;2022-11-06T09:10:14;19.90;50.20
40289;DHT22;28991;52.028;5.526;2022-11-06T09:12:40;19.90;50.20
40289;DHT22;28991;52.028;5.526;2022-11-06T09:15:05;19.90;50.10
40289;DHT22;28991;52.028;5.526;2022-11-06T09:17:31;19.90;50.00
40289;DHT22;28991;52.028;5.526;2022-11-06T09:19:57;20.00;50.00
40289;DHT22;28991;52.028;5.526;2022-11-06T09:22:22;20.10;49.80
40289;DHT22;28991;52.028;5.526;2022-11-06T09:24:48;20.20;49.90
40289;DHT22;28991;52.028;5.526;2022-11-06T09:27:13;20.20;49.80
40289;DHT22;28991;52.028;5.526;2022-11-06T09:29:39;20.10;49.80
40289;DHT22;28991;52.028;5.526;2022-11-06T09:32:08;20.10;49.80
40289;DHT22;28991;52.028;5.526;2022-11-06T09:34:33;20.50;50.10
40289;DHT22;28991;52.028;5.526;2022-11-06T09:37:00;20.20;49.90
40289;DHT22;28991;52.028;5.526;2022-11-06T09:39:26;20.20;50.00
40289;DHT22;28991;52.028;5.526;2022-11-06T09:44:28;20.20;50.00
40289;DHT22;28991;52.028;5.526;2022-11-06T09:46:58;20.10;50.10
40289;DHT22;28991;52.028;5.526;2022-11-06T09:49:38;20.10;50.00
40289;DHT22;28991;52.028;5.526;2022-11-06T09:54:49;20.10;50.10
40289;DHT22;28991;52.028;5.526;2022-11-06T09:57:22;20.10;50.20
40289;DHT22;28991;52.028;5.526;2022-11-06T09:59:52;20.00;50.10
40289;DHT22;28991;52.028;5.526;2022-11-06T10:02:19;20.00;50.20
40289;DHT22;28991;52.028;5.526;2022-11-06T10:04:48;20.00;50.30
40289;DHT22;28991;52.028;5.526;2022-11-06T10:07:26;20.00;50.30
40289;DHT22;28991;52.028;5.526;2022-11-06T10:09:52;20.00;50.40
40289;DHT22;28991;52.028;5.526;2022-11-06T10:12:21;20.00;50.30
40289;DHT22;28991;52.028;5.526;2022-11-06T10:14:52;20.00;50.40
40289;DHT22;28991;52.028;5.526;2022-11-06T10:19:55;19.90;50.40
40289;DHT22;28991;52.028;5.526;2022-11-06T10:22:40;19.90;50.50
40289;DHT22;28991;52.028;5.526;2022-11-06T10:27:40;20.00;50.60
40289;DHT22;28991;52.028;5.526;2022-11-06T10:38:26;19.90;50.70
40289;DHT22;28991;52.028;5.526;2022-11-06T10:40:31;19.90;50.70
40289;DHT22;28991;52.028;5.526;2022-11-06T10:43:04;19.90;50.90
40289;DHT22;28991;52.028;5.526;2022-11-06T10:45:32;19.90;50.70
40289;DHT22;28991;52.028;5.526;2022-11-06T10:47:59;19.90;50.80
40289;DHT22;28991;52.028;5.526;2022-11-06T10:50:41;19.90;50.80
40289;DHT22;28991;52.028;5.526;2022-11-06T10:53:16;19.90;50.90
40289;DHT22;28991;52.028;5.526;2022-11-06T10:58:09;19.80;50.90
40289;DHT22;28991;52.028;5.526;2022-11-06T11:00:36;19.80;50.90
40289;DHT22;28991;52.028;5.526;2022-11-06T11:03:15;19.80;50.90
40289;DHT22;28991;52.028;5.526;2022-11-06T11:05:42;19.80;50.90
40289;DHT22;28991;52.028;5.526;2022-11-06T11:08:53;19.90;51.00
40289;DHT22;28991;52.028;5.526;2022-11-06T11:13:50;19.80;51.00
40289;DHT22;28991;52.028;5.526;2022-11-06T11:18:43;19.80;51.60
40289;DHT22;28991;52.028;5.526;2022-11-06T11:23:37;19.80;51.10
40289;DHT22;28991;52.028;5.526;2022-11-06T11:26:17;19.90;51.10
40289;DHT22;28991;52.028;5.526;2022-11-06T11:28:48;19.80;51.10
40289;DHT22;28991;52.028;5.526;2022-11-06T11:31:14;19.80;51.10
40289;DHT22;28991;52.028;5.526;2022-11-06T11:33:49;19.70;51.70
40289;DHT22;28991;52.028;5.526;2022-11-06T11:36:15;19.70;51.10
40289;DHT22;28991;52.028;5.526;2022-11-06T11:38:41;20.10;51.30
40289;DHT22;28991;52.028;5.526;2022-11-06T11:41:09;19.80;51.20
40289;DHT22;28991;52.028;5.526;2022-11-06T11:43:35;19.80;51.70
40289;DHT22;28991;52.028;5.526;2022-11-06T11:53:44;19.80;51.10
40289;DHT22;28991;52.028;5.526;2022-11-06T11:56:13;19.70;51.00
40289;DHT22;28991;52.028;5.526;2022-11-06T11:58:46;19.80;51.00
40289;DHT22;28991;52.028;5.526;2022-11-06T12:01:13;20.10;51.20
40289;DHT22;28991;52.028;5.526;2022-11-06T12:03:39;19.70;51.00
40289;DHT22;28991;52.028;5.526;2022-11-06T12:06:09;19.70;51.00
40289;DHT22;28991;52.028;5.526;2022-11-06T12:08:36;19.70;51.00
40289;DHT22;28991;52.028;5.526;2022-11-06T12:11:02;19.70;51.10
40289;DHT22;28991;52.028;5.526;2022-11-06T12:13:28;19.70;51.20
40289;DHT22;28991;52.028;5.526;2022-11-06T12:15:55;19.70;51.20
40289;DHT22;28991;52.028;5.526;2022-11-06T12:21:27;19.70;51.30
40289;DHT22;28991;52.028;5.526;2022-11-06T12:24:09;19.70;51.30
40289;DHT22;28991;52.028;5.526;2022-11-06T12:29:27;19.60;51.40
40289;DHT22;28991;52.028;5.526;2022-11-06T12:32:01;19.60;51.40
40289;DHT22;28991;52.028;5.526;2022-11-06T12:34:36;19.60;51.40
40289;DHT22;28991;52.028;5.526;2022-11-06T12:37:11;19.60;51.40
40289;DHT22;28991;52.028;5.526;2022-11-06T12:39:39;19.60;51.40
40289;DHT22;28991;52.028;5.526;2022-11-06T12:42:06;19.40;51.30
40289;DHT22;28991;52.028;5.526;2022-11-06T12:44:34;19.50;51.50
40289;DHT22;28991;52.028;5.526;2022-11-06T12:47:03;19.50;51.50
40289;DHT22;28991;52.028;5.526;2022-11-06T12:54:59;19.50;51.60
40289;DHT22;28991;52.028;5.526;2022-11-06T13:00:12;19.50;51.60
40289;DHT22;28991;52.028;5.526;2022-11-06T13:02:48;19.60;51.70
40289;DHT22;28991;52.028;5.526;2022-11-06T13:18:18;19.40;51.70
40289;DHT22;28991;52.028;5.526;2022-11-06T13:20:48;19.40;51.80
40289;DHT22;28991;52.028;5.526;2022-11-06T13:23:34;19.40;51.80
40289;DHT22;28991;52.028;5.526;2022-11-06T13:26:05;19.40;51.80
40289;DHT22;28991;52.028;5.526;2022-11-06T13:31:00;19.30;51.80
40289;DHT22;28991;52.028;5.526;2022-11-06T13:33:46;19.30;51.80
40289;DHT22;28991;52.028;5.526;2022-11-06T13:36:12;19.40;51.90
40289;DHT22;28991;52.028;5.526;2022-11-06T13:38:39;19.40;51.90
40289;DHT22;28991;52.028;5.526;2022-11-06T13:41:08;19.30;51.90
40289;DHT22;28991;52.028;5.526;2022-11-06T13:43:43;19.30;51.90
40289;DHT22;28991;52.028;5.526;2022-11-06T13:46:15;19.30;51.90
40289;DHT22;28991;52.028;5.526;2022-11-06T14:01:43;19.30;52.00
40289;DHT22;28991;52.028;5.526;2022-11-06T14:06:38;19.30;52.10
40289;DHT22;28991;52.028;5.526;2022-11-06T14:09:05;19.30;52.10
40289;DHT22;28991;52.028;5.526;2022-11-06T14:11:32;19.30;52.10
40289;DHT22;28991;52.028;5.526;2022-11-06T14:16:29;19.30;52.10
40289;DHT22;28991;52.028;5.526;2022-11-06T14:21:46;19.20;52.10
40289;DHT22;28991;52.028;5.526;2022-11-06T14:26:47;19.20;52.20
40289;DHT22;28991;52.028;5.526;2022-11-06T14:34:34;19.20;52.20
40289;DHT22;28991;52.028;5.526;2022-11-06T14:42:15;19.20;52.30
40289;DHT22;28991;52.028;5.526;2022-11-06T14:44:42;19.20;52.30
40289;DHT22;28991;52.028;5.526;2022-11-06T14:47:18;19.20;52.30
40289;DHT22;28991;52.028;5.526;2022-11-06T14:49:44;20.20;52.90
40289;DHT22;28991;52.028;5.526;2022-11-06T14:52:13;19.20;52.30
40289;DHT22;28991;52.028;5.526;2022-11-06T14:54:41;19.20;52.40
40289;DHT22;28991;52.028;5.526;2022-11-06T14:57:14;19.10;52.30
40289;DHT22;28991;52.028;5.526;2022-11-06T14:59:40;19.20;52.40
40289;DHT22;28991;52.028;5.526;2022-11-06T15:04:40;19.20;52.40
40289;DHT22;28991;52.028;5.526;2022-11-06T15:07:09;19.10;52.40
40289;DHT22;28991;52.028;5.526;2022-11-06T15:12:04;19.10;52.40
40289;DHT22;28991;52.028;5.526;2022-11-06T15:17:04;19.10;52.40
40289;DHT22;28991;52.028;5.526;2022-11-06T15:19:32;19.10;52.50
40289;DHT22;28991;52.028;5.526;2022-11-06T15:24:30;19.10;52.50
40289;DHT22;28991;52.028;5.526;2022-11-06T15:26:58;19.10;52.50
40289;DHT22;28991;52.028;5.526;2022-11-06T15:29:30;19.10;52.50
40289;DHT22;28991;52.028;5.526;2022-11-06T15:31:57;19.10;52.50
40289;DHT22;28991;52.028;5.526;2022-11-06T15:34:31;19.10;52.50
40289;DHT22;28991;52.028;5.526;2022-11-06T15:37:02;19.10;52.60
40289;DHT22;28991;52.028;5.526;2022-11-06T15:39:37;19.10;52.60
40289;DHT22;28991;52.028;5.526;2022-11-06T15:42:05;19.10;52.60
40289;DHT22;28991;52.028;5.526;2022-11-06T15:44:31;19.00;52.50
40289;DHT22;28991;52.028;5.526;2022-11-06T15:46:59;19.10;52.70
40289;DHT22;28991;52.028;5.526;2022-11-06T15:49:25;19.30;52.80
40289;DHT22;28991;52.028;5.526;2022-11-06T15:51:57;19.10;52.60
40289;DHT22;28991;52.028;5.526;2022-11-06T15:54:29;19.00;52.60
40289;DHT22;28991;52.028;5.526;2022-11-06T15:56:55;19.10;52.70
40289;DHT22;28991;52.028;5.526;2022-11-06T15:59:21;19.00;52.60
40289;DHT22;28991;52.028;5.526;2022-11-06T16:01:47;19.20;52.80
40289;DHT22;28991;52.028;5.526;2022-11-06T16:04:31;19.00;52.60
40289;DHT22;28991;52.028;5.526;2022-11-06T16:06:57;19.00;52.60
40289;DHT22;28991;52.028;5.526;2022-11-06T16:09:24;19.00;52.60
40289;DHT22;28991;52.028;5.526;2022-11-06T16:11:50;19.70;53.00
40289;DHT22;28991;52.028;5.526;2022-11-06T16:14:17;19.10;52.70
40289;DHT22;28991;52.028;5.526;2022-11-06T16:16:44;19.00;52.70
40289;DHT22;28991;52.028;5.526;2022-11-06T16:19:20;19.10;52.80
40289;DHT22;28991;52.028;5.526;2022-11-06T16:24:22;19.00;52.70
40289;DHT22;28991;52.028;5.526;2022-11-06T16:26:49;19.00;52.70
40289;DHT22;28991;52.028;5.526;2022-11-06T16:29:22;19.00;52.70
40289;DHT22;28991;52.028;5.526;2022-11-06T16:31:52;19.00;52.80
40289;DHT22;28991;52.028;5.526;2022-11-06T16:36:58;19.00;52.80
40289;DHT22;28991;52.028;5.526;2022-11-06T16:41:59;19.00;52.80
40289;DHT22;28991;52.028;5.526;2022-11-06T16:49:32;18.90;52.80
40289;DHT22;28991;52.028;5.526;2022-11-06T16:51:58;18.90;52.80
40289;DHT22;28991;52.028;5.526;2022-11-06T16:54:23;18.90;52.80
40289;DHT22;28991;52.028;5.526;2022-11-06T16:57:01;18.90;52.80
40289;DHT22;28991;52.028;5.526;2022-11-06T16:59:31;18.90;52.80
40289;DHT22;28991;52.028;5.526;2022-11-06T17:01:57;18.90;52.90
40289;DHT22;28991;52.028;5.526;2022-11-06T17:04:23;18.90;52.80
40289;DHT22;28991;52.028;5.526;2022-11-06T17:06:50;19.00;52.90
40289;DHT22;28991;52.028;5.526;2022-11-06T17:09:28;19.00;52.90
40289;DHT22;28991;52.028;5.526;2022-11-06T17:11:55;18.90;52.90
40289;DHT22;28991;52.028;5.526;2022-11-06T17:14:21;19.00;53.00
40289;DHT22;28991;52.028;5.526;2022-11-06T17:16:47;19.00;53.00
40289;DHT22;28991;52.028;5.526;2022-11-06T17:19:14;18.90;53.00
40289;DHT22;28991;52.028;5.526;2022-11-06T17:21:40;19.00;53.00
40289;DHT22;28991;52.028;5.526;2022-11-06T17:24:05;18.90;52.90
40289;DHT22;28991;52.028;5.526;2022-11-06T17:26:31;18.90;52.90
40289;DHT22;28991;52.028;5.526;2022-11-06T17:28:57;18.90;53.00
40289;DHT22;28991;52.028;5.526;2022-11-06T17:31:23;18.90;53.00
40289;DHT22;28991;52.028;5.526;2022-11-06T17:33:49;18.90;53.00
40289;DHT22;28991;52.028;5.526;2022-11-06T17:36:21;18.90;53.00
40289;DHT22;28991;52.028;5.526;2022-11-06T17:38:49;18.90;53.00
40289;DHT22;28991;52.028;5.526;2022-11-06T17:41:15;18.90;53.10
40289;DHT22;28991;52.028;5.526;2022-11-06T17:43:57;18.90;53.10
40289;DHT22;28991;52.028;5.526;2022-11-06T17:46:27;18.90;53.10
40289;DHT22;28991;52.028;5.526;2022-11-06T17:48:53;18.90;53.10
40289;DHT22;28991;52.028;5.526;2022-11-06T17:51:18;18.90;53.10
40289;DHT22;28991;52.028;5.526;2022-11-06T17:54:03;18.90;53.10
40289;DHT22;28991;52.028;5.526;2022-11-06T17:56:28;18.90;53.20
40289;DHT22;28991;52.028;5.526;2022-11-06T17:58:54;18.90;53.20